createdAt,value
2023-02-11T00:01:51.879Z,60677.59
2023-02-11T00:04:20.362Z,60686.41
2023-02-11T00:06:48.749Z,60693.44
2023-02-11T00:09:17.273Z,60691.31
2023-02-11T00:11:45.807Z,60690.66
2023-02-11T00:14:15.691Z,60693.03
2023-02-11T00:16:44.429Z,60680.66
2023-02-11T00:19:13.087Z,60696.09
2023-02-11T00:21:42.063Z,60683.19
2023-02-11T00:24:10.730Z,60688.53
2023-02-11T00:26:39.298Z,60686.53
2023-02-11T00:29:07.804Z,60698.50
2023-02-11T00:31:37.744Z,60691.72
2023-02-11T00:34:07.069Z,60687.06
2023-02-11T00:36:35.495Z,60684.94
2023-02-11T00:39:04.108Z,60685.88
2023-02-11T00:41:32.901Z,60697.06
2023-02-11T00:44:01.460Z,60687.72
2023-02-11T00:46:30.661Z,60694.38
2023-02-11T00:49:00.478Z,60692.25
2023-02-11T00:51:30.092Z,60692.91
2023-02-11T00:53:58.465Z,60698.13
2023-02-11T00:56:27.349Z,60700.25
2023-02-11T00:58:57.672Z,60706.13
2023-02-11T01:01:26.398Z,60693.88
2023-02-11T01:03:54.868Z,60695.97
2023-02-11T01:06:26.285Z,60703.44
2023-02-11T01:08:54.705Z,60703.97
2023-02-11T01:11:23.338Z,60706.63
2023-02-11T01:13:52.417Z,60708.38
2023-02-11T01:16:21.779Z,60708.78
2023-02-11T01:18:50.372Z,60707.81
2023-02-11T01:21:19.476Z,60707.69
2023-02-11T01:23:49.288Z,60703.44
2023-02-11T01:26:18.068Z,60703.44
2023-02-11T01:28:46.866Z,60691.84
2023-02-11T01:31:15.956Z,60698.38
2023-02-11T01:33:44.832Z,60706.13
2023-02-11T01:36:14.240Z,60699.44
2023-02-11T01:38:44.457Z,60699.72
2023-02-11T01:41:16.000Z,60714.50
2023-02-11T01:43:50.136Z,60715.16
2023-02-11T01:46:34.870Z,60709.69
2023-02-11T01:49:09.353Z,60719.03
2023-02-11T01:51:41.692Z,60729.03
2023-02-11T01:54:27.493Z,60717.00
2023-02-11T01:57:17.820Z,60717.00
2023-02-11T01:59:52.176Z,60721.28
2023-02-11T02:02:30.299Z,60714.63
2023-02-11T02:05:07.238Z,60699.31
2023-02-11T02:07:44.102Z,60695.97
2023-02-11T02:10:16.736Z,60703.44
2023-02-11T02:12:46.716Z,60694.66
2023-02-11T02:15:31.798Z,60700.66
2023-02-11T02:18:21.656Z,60684.53
2023-02-11T02:21:23.605Z,60685.34
2023-02-11T02:24:39.396Z,60677.19
2023-02-11T02:27:31.477Z,60692.91
2023-02-11T02:30:41.315Z,60706.63
2023-02-11T02:33:26.476Z,60706.63
2023-02-11T02:36:07.291Z,60703.44
2023-02-11T02:38:43.990Z,60695.97
2023-02-11T02:41:16.725Z,60698.13
2023-02-11T02:43:50.021Z,60706.25
2023-02-11T02:46:22.561Z,60701.72
2023-02-11T02:48:54.120Z,60704.50
2023-02-11T02:51:46.923Z,60700.91
2023-02-11T02:55:15.126Z,60714.63
2023-02-11T02:58:13.220Z,60710.50
2023-02-11T03:00:47.776Z,60717.69
2023-02-11T03:03:25.672Z,60713.81
2023-02-11T03:06:03.475Z,60717.00
2023-02-11T03:08:36.642Z,60725.81
2023-02-11T03:11:06.845Z,60726.88
2023-02-11T03:13:38.011Z,60720.09
2023-02-11T03:16:12.526Z,60722.63
2023-02-11T03:18:45.829Z,60723.16
2023-02-11T03:21:19.743Z,60725.00
2023-02-11T03:23:55.243Z,60728.47
2023-02-11T03:26:31.780Z,60725.81
2023-02-11T03:29:08.129Z,60719.97
2023-02-11T03:31:43.293Z,60709.03
2023-02-11T03:34:17.075Z,60715.16
2023-02-11T03:36:52.368Z,60719.03
2023-02-11T03:39:25.769Z,60719.53
2023-02-11T03:41:58.572Z,60726.75
2023-02-11T03:44:32.818Z,60712.50
2023-02-11T03:47:04.738Z,60711.56
2023-02-11T03:49:34.559Z,60694.66
2023-02-11T03:52:07.885Z,60706.78
2023-02-11T03:54:37.301Z,60696.75
2023-02-11T03:57:06.040Z,60705.06
2023-02-11T03:59:51.170Z,60707.03
2023-02-11T04:02:20.009Z,60705.59
2023-02-11T04:04:48.830Z,60694.91
2023-02-11T04:07:18.658Z,60702.38
2023-02-11T04:09:47.249Z,60697.31
2023-02-11T04:12:15.733Z,60692.63
2023-02-11T04:14:44.192Z,60710.50
2023-02-11T04:17:13.935Z,60713.69
2023-02-11T04:19:42.458Z,60714.34
2023-02-11T04:22:11.073Z,60717.31
2023-02-11T04:24:41.154Z,60714.09
2023-02-11T04:27:09.694Z,60722.63
2023-02-11T04:29:38.264Z,60715.28
2023-02-11T04:32:06.850Z,60717.31
2023-02-11T04:34:35.382Z,60723.94
2023-02-11T04:37:04.088Z,60726.88
2023-02-11T04:39:32.492Z,60728.59
2023-02-11T04:42:02.378Z,60732.06
2023-02-11T04:44:30.952Z,60740.19
2023-02-11T04:46:59.322Z,60731.41
2023-02-11T04:49:27.802Z,60741.16
2023-02-11T04:51:56.474Z,60739.13
2023-02-11T04:54:24.892Z,60740.44
2023-02-11T04:56:53.306Z,60737.00
2023-02-11T04:59:23.187Z,60732.75
2023-02-11T05:01:51.779Z,60735.66
2023-02-11T05:04:20.542Z,60730.75
2023-02-11T05:06:48.973Z,60730.34
2023-02-11T05:09:18.226Z,60734.34
2023-02-11T05:11:46.614Z,60728.72
2023-02-11T05:14:15.174Z,60739.25
2023-02-11T05:16:44.946Z,60733.53
2023-02-11T05:19:13.495Z,60734.59
2023-02-11T05:21:53.177Z,60743.94
2023-02-11T05:24:28.909Z,60735.13
2023-02-11T05:26:57.260Z,60738.88
2023-02-11T05:29:25.735Z,60747.53
2023-02-11T05:31:55.791Z,60740.75
2023-02-11T05:34:24.230Z,60743.13
2023-02-11T05:36:52.857Z,60746.19
2023-02-11T05:39:21.496Z,60749.28
2023-02-11T05:41:50.026Z,60750.34
2023-02-11T05:44:18.684Z,60742.88
2023-02-11T05:46:47.120Z,60743.53
2023-02-11T05:49:18.222Z,60740.19
2023-02-11T05:51:46.727Z,60735.13
2023-02-11T05:54:15.662Z,60738.06
2023-02-11T05:56:44.988Z,60739.25
2023-02-11T05:59:15.586Z,60742.47
2023-02-11T06:01:44.053Z,60740.97
2023-02-11T06:04:12.690Z,60748.19
2023-02-11T06:06:42.540Z,60737.78
2023-02-11T06:09:11.823Z,60742.47
2023-02-11T06:11:40.390Z,60737.78
2023-02-11T06:14:09.927Z,60738.59
2023-02-11T06:16:38.606Z,60726.47
2023-02-11T06:19:07.221Z,60727.00
2023-02-11T06:21:43.202Z,60729.69
2023-02-11T06:24:13.939Z,60728.72
2023-02-11T06:26:42.427Z,60736.06
2023-02-11T06:29:11.173Z,60732.75
2023-02-11T06:31:40.307Z,60719.16
2023-02-11T06:34:09.749Z,60726.34
2023-02-11T06:36:39.769Z,60722.63
2023-02-11T06:39:09.266Z,60719.03
2023-02-11T06:41:39.099Z,60703.31
2023-02-11T06:44:08.199Z,60718.34
2023-02-11T06:46:36.745Z,60708.91
2023-02-11T06:49:05.224Z,60709.44
2023-02-11T06:51:33.713Z,60710.09
2023-02-11T06:54:02.158Z,60719.31
2023-02-11T06:56:30.613Z,60705.59
2023-02-11T06:59:00.602Z,60708.78
2023-02-11T07:01:29.473Z,60715.16
2023-02-11T07:03:58.455Z,60729.69
2023-02-11T07:06:28.617Z,60735.81
2023-02-11T07:08:57.840Z,60714.09
2023-02-11T07:11:29.655Z,60737.13
2023-02-11T07:14:04.448Z,60752.47
2023-02-11T07:16:33.846Z,60763.13
2023-02-11T07:19:02.654Z,60750.59
2023-02-11T07:21:31.337Z,60737.13
2023-02-11T07:23:59.862Z,60731.78
2023-02-11T07:26:28.991Z,60731.94
2023-02-11T07:28:57.800Z,60742.47
2023-02-11T07:31:30.188Z,60743.41
2023-02-11T07:34:03.122Z,60758.88
2023-02-11T07:36:33.132Z,60742.34
2023-02-11T07:39:01.889Z,60762.59
2023-02-11T07:41:30.457Z,60770.72
2023-02-11T07:43:59.021Z,60769.50
2023-02-11T07:46:29.503Z,60768.44
2023-02-11T07:48:57.969Z,60778.16
2023-02-11T07:51:29.160Z,60792.44
2023-02-11T07:53:59.990Z,60792.56
2023-02-11T07:56:30.175Z,60803.75
2023-02-11T07:59:03.218Z,60825.09
2023-02-11T08:01:33.577Z,60838.19
2023-02-11T08:04:03.598Z,60836.28
2023-02-11T08:06:34.485Z,60845.34
2023-02-11T08:09:08.119Z,60848.03
2023-02-11T08:11:36.969Z,60855.38
2023-02-11T08:14:05.512Z,60853.78
2023-02-11T08:16:37.419Z,60870.84
2023-02-11T08:19:09.100Z,60859.59
2023-02-11T08:21:37.616Z,60866.44
2023-02-11T08:24:06.971Z,60866.56
2023-02-11T08:26:36.672Z,60861.66
2023-02-11T08:29:12.136Z,60876.19
2023-02-11T08:31:44.739Z,60854.44
2023-02-11T08:34:14.507Z,60854.84
2023-02-11T08:36:44.992Z,60853.78
2023-02-11T08:39:20.058Z,60864.03
2023-02-11T08:41:49.943Z,60884.31
2023-02-11T08:44:19.201Z,60893.25
2023-02-11T08:46:49.500Z,60881.50
2023-02-11T08:49:18.727Z,60885.91
2023-02-11T08:51:48.042Z,60876.41
2023-02-11T08:54:17.029Z,60884.72
2023-02-11T08:56:45.757Z,60886.44
2023-02-11T08:59:17.777Z,60896.56
2023-02-11T09:01:47.340Z,60901.91
2023-02-11T09:04:18.570Z,60912.47
2023-02-11T09:06:47.123Z,60917.81
2023-02-11T09:09:16.958Z,60919.94
2023-02-11T09:11:46.531Z,60919.69
2023-02-11T09:14:20.236Z,60927.00
2023-02-11T09:16:49.773Z,60940.22
2023-02-11T09:19:20.263Z,60959.88
2023-02-11T09:21:48.783Z,60959.59
2023-02-11T09:24:17.508Z,60969.19
2023-02-11T09:26:46.265Z,60977.63
2023-02-11T09:29:15.105Z,60978.69
2023-02-11T09:31:43.739Z,60978.94
2023-02-11T09:34:13.009Z,60999.50
2023-02-11T09:36:42.853Z,60985.84
2023-02-11T09:39:15.290Z,60975.22
2023-02-11T09:41:59.865Z,60960.13
2023-02-11T09:44:31.438Z,60986.16
2023-02-11T09:47:02.622Z,60990.44
2023-02-11T09:49:41.120Z,61011.78
2023-02-11T09:52:22.593Z,60993.75
2023-02-11T09:54:57.630Z,61000.81
2023-02-11T09:57:33.989Z,60998.44
2023-02-11T10:00:05.062Z,61000.03
2023-02-11T10:02:58.802Z,61008.72
2023-02-11T10:05:44.385Z,61013.66
2023-02-11T10:08:21.672Z,61035.31
2023-02-11T10:10:54.502Z,61053.63
2023-02-11T10:13:48.466Z,61068.59
2023-02-11T10:16:40.227Z,61077.69
2023-02-11T10:19:35.876Z,61111.25
2023-02-11T10:22:15.068Z,61111.25
2023-02-11T10:24:54.073Z,61106.53
2023-02-11T10:27:29.686Z,61122.19
2023-02-11T10:30:05.204Z,61125.16
2023-02-11T10:32:43.606Z,61128.38
2023-02-11T10:35:18.150Z,61125.16
2023-02-11T10:37:46.854Z,61113.78
2023-02-11T10:40:20.350Z,61108.97
2023-02-11T10:42:55.475Z,61110.59
2023-02-11T10:45:35.089Z,61104.44
2023-02-11T10:48:07.206Z,61098.66
2023-02-11T10:50:37.112Z,61092.00
2023-02-11T10:53:21.084Z,61079.28
2023-02-11T10:55:57.321Z,61092.41
2023-02-11T10:58:29.625Z,61090.50
2023-02-11T11:01:00.754Z,61093.59
2023-02-11T11:03:34.480Z,61101.38
2023-02-11T11:06:05.501Z,61110.19
2023-02-11T11:08:46.343Z,61113.38
2023-02-11T11:11:18.237Z,61116.06
2023-02-11T11:14:00.227Z,61110.84
2023-02-11T11:16:29.970Z,61119.81
2023-02-11T11:19:22.550Z,61093.06
2023-02-11T11:21:53.098Z,61104.44
2023-02-11T11:24:26.821Z,61116.72
2023-02-11T11:27:01.039Z,61124.72
2023-02-11T11:29:36.346Z,61130.63
2023-02-11T11:32:13.232Z,61147.72
2023-02-11T11:34:45.104Z,61146.97
2023-02-11T11:37:20.693Z,61147.22
2023-02-11T11:39:58.582Z,61145.50
2023-02-11T11:42:31.756Z,61144.94
2023-02-11T11:45:02.702Z,61145.06
2023-02-11T11:47:37.673Z,61144.41
2023-02-11T11:50:28.781Z,61155.13
2023-02-11T11:53:04.351Z,61153.63
2023-02-11T11:55:39.364Z,61149.75
2023-02-11T11:58:16.332Z,61128.59
2023-02-11T12:01:01.508Z,61151.78
2023-02-11T12:04:33.948Z,61152.03
2023-02-11T12:07:28.080Z,61174.91
2023-02-11T12:10:33.300Z,61196.84
2023-02-11T12:13:18.388Z,61205.41
2023-02-11T12:15:58.583Z,61202.22
2023-02-11T12:18:47.396Z,61200.31
2023-02-11T12:21:44.692Z,61203.69
2023-02-11T12:24:31.006Z,61202.88
2023-02-11T12:27:07.827Z,61203.28
2023-02-11T12:29:53.908Z,61202.75
2023-02-11T12:32:36.514Z,61202.97
2023-02-11T12:35:28.714Z,61192.16
2023-02-11T12:38:22.690Z,61200.72
2023-02-11T12:41:05.770Z,61207.44
2023-02-11T12:43:38.032Z,61209.69
2023-02-11T12:46:35.460Z,61192.56
2023-02-11T12:49:25.531Z,61187.63
2023-02-11T12:52:13.926Z,61202.50
2023-02-11T12:54:49.411Z,61199.00
2023-02-11T12:57:22.901Z,61187.22
2023-02-11T13:00:00.850Z,61175.56
2023-02-11T13:02:42.024Z,61174.38
2023-02-11T13:05:26.433Z,61179.72
2023-02-11T13:08:01.122Z,61171.81
2023-02-11T13:10:35.548Z,61173.31
2023-02-11T13:13:18.596Z,61166.88
2023-02-11T13:15:53.392Z,61163.69
2023-02-11T13:18:38.423Z,61162.31
2023-02-11T13:21:43.286Z,61189.78
2023-02-11T13:24:25.328Z,61194.16
2023-02-11T13:27:05.873Z,61199.53
2023-02-11T13:30:10.683Z,61195.34
2023-02-11T13:33:07.697Z,61180.81
2023-02-11T13:35:40.183Z,61179.84
2023-02-11T13:38:21.587Z,61185.19
2023-02-11T13:41:03.637Z,61191.50
2023-02-11T13:43:34.921Z,61181.88
2023-02-11T13:46:06.434Z,61181.88
2023-02-11T13:48:38.331Z,61179.84
2023-02-11T13:51:10.146Z,61184.78
2023-02-11T13:53:49.758Z,61194.06
2023-02-11T13:56:31.042Z,61191.91
2023-02-11T13:59:02.097Z,61185.72
2023-02-11T14:02:20.957Z,61184.41
2023-02-11T14:05:43.628Z,61177.81
2023-02-11T14:08:40.885Z,61178.78
2023-02-11T14:11:50.576Z,61186.56
2023-02-11T14:14:23.985Z,61181.88
2023-02-11T14:17:35.505Z,61183.47
2023-02-11T14:20:05.948Z,61166.88
2023-02-11T14:22:45.408Z,61179.72
2023-02-11T14:25:27.442Z,61179.19
2023-02-11T14:28:01.615Z,61185.38
2023-02-11T14:30:58.402Z,61171.81
2023-02-11T14:33:52.240Z,61175.03
2023-02-11T14:36:51.948Z,61172.91
2023-02-11T14:39:40.388Z,61185.72
2023-02-11T14:42:20.872Z,61190.44
2023-02-11T14:44:52.198Z,61187.44
2023-02-11T14:47:24.609Z,61193.22
2023-02-11T14:49:53.086Z,61190.44
2023-02-11T14:52:29.426Z,61188.41
2023-02-11T14:55:08.570Z,61200.59
2023-02-11T14:57:38.714Z,61204.75
2023-02-11T15:00:17.798Z,61193.22
2023-02-11T15:02:46.367Z,61200.59
2023-02-11T15:05:21.728Z,61199.66
2023-02-11T15:07:53.400Z,61199.66
2023-02-11T15:10:30.873Z,61201.97
2023-02-11T15:13:02.440Z,61193.34
2023-02-11T15:15:32.080Z,61190.44
2023-02-11T15:18:05.231Z,61189.34
2023-02-11T15:20:35.883Z,61192.56
2023-02-11T15:23:09.513Z,61191.75
2023-02-11T15:25:45.804Z,61197.38
2023-02-11T15:28:24.653Z,61197.50
2023-02-11T15:31:02.355Z,61193.75
2023-02-11T15:33:32.310Z,61192.56
2023-02-11T15:36:01.889Z,61186.13
2023-02-11T15:38:31.013Z,61192.56
2023-02-11T15:41:02.155Z,61194.69
2023-02-11T15:43:47.966Z,61194.81
2023-02-11T15:46:20.240Z,61189.47
2023-02-11T15:48:51.450Z,61192.16
2023-02-11T15:51:23.094Z,61190.56
2023-02-11T15:53:57.065Z,61187.75
2023-02-11T15:56:29.810Z,61189.13
2023-02-11T15:59:11.990Z,61190.84
2023-02-11T16:01:42.375Z,61187.22
2023-02-11T16:04:18.599Z,61190.97
2023-02-11T16:06:48.769Z,61185.59
2023-02-11T16:09:34.267Z,61180.38
2023-02-11T16:12:07.509Z,61185.31
2023-02-11T16:14:39.315Z,61189.34
2023-02-11T16:17:11.218Z,61181.47
2023-02-11T16:19:46.515Z,61191.91
2023-02-11T16:22:20.200Z,61190.84
2023-02-11T16:24:51.222Z,61194.16
2023-02-11T16:27:24.640Z,61185.72
2023-02-11T16:29:54.755Z,61187.22
2023-02-11T16:32:25.260Z,61183.06
2023-02-11T16:34:55.204Z,61177.16
2023-02-11T16:37:23.804Z,61186.56
2023-02-11T16:39:55.950Z,61174.38
2023-02-11T16:42:24.458Z,61171.41
2023-02-11T16:44:54.265Z,61169.81
2023-02-11T16:47:26.839Z,61176.09
2023-02-11T16:49:57.006Z,61170.75
2023-02-11T16:52:26.000Z,61178.25
2023-02-11T16:54:54.776Z,61177.03
2023-02-11T16:57:27.553Z,61176.09
2023-02-11T17:00:00.012Z,61175.03
2023-02-11T17:02:31.713Z,61170.75
2023-02-11T17:05:02.885Z,61173.53
2023-02-11T17:07:31.798Z,61170.22
2023-02-11T17:10:00.422Z,61181.88
2023-02-11T17:12:28.945Z,61176.50
2023-02-11T17:14:58.704Z,61177.56
2023-02-11T17:17:29.019Z,61170.88
2023-02-11T17:19:57.401Z,61175.44
2023-02-11T17:22:25.816Z,61168.34
2023-02-11T17:24:55.899Z,61161.78
2023-02-11T17:27:24.591Z,61169.84
2023-02-11T17:29:52.948Z,61161.13
2023-02-11T17:32:22.895Z,61161.94
2023-02-11T17:34:51.440Z,61157.47
2023-02-11T17:37:19.772Z,61154.28
2023-02-11T17:39:50.252Z,61160.03
2023-02-11T17:42:20.226Z,61157.91
2023-02-11T17:44:49.292Z,61154.69
2023-02-11T17:47:17.679Z,61153.38
2023-02-11T17:49:47.568Z,61156.81
2023-02-11T17:52:16.806Z,61157.91
2023-02-11T17:54:45.958Z,61161.00
2023-02-11T17:57:14.724Z,61162.06
2023-02-11T17:59:43.311Z,61158.97
2023-02-11T18:02:13.471Z,61161.53
2023-02-11T18:04:42.145Z,61160.47
2023-02-11T18:07:12.049Z,61154.03
2023-02-11T18:09:41.888Z,61150.41
2023-02-11T18:12:11.232Z,61162.47
2023-02-11T18:14:41.327Z,61159.38
2023-02-11T18:17:10.406Z,61160.88
2023-02-11T18:19:38.884Z,61148.38
2023-02-11T18:22:08.191Z,61154.69
2023-02-11T18:24:38.169Z,61158.31
2023-02-11T18:27:06.570Z,61157.25
2023-02-11T18:29:35.204Z,61156.19
2023-02-11T18:32:03.881Z,61153.50
2023-02-11T18:34:33.115Z,61150.81
2023-02-11T18:37:01.666Z,61149.34
2023-02-11T18:39:30.302Z,61150.94
2023-02-11T18:42:00.225Z,61144.41
2023-02-11T18:44:28.916Z,61150.28
2023-02-11T18:46:57.316Z,61146.66
2023-02-11T18:49:25.768Z,61149.75
2023-02-11T18:51:54.872Z,61145.59
2023-02-11T18:54:23.382Z,61144.94
2023-02-11T18:56:52.071Z,61148.69
2023-02-11T18:59:21.887Z,61141.44
2023-02-11T19:01:51.138Z,61152.31
2023-02-11T19:04:20.202Z,61151.78
2023-02-11T19:06:50.444Z,61147.22
2023-02-11T19:09:21.546Z,61148.69
2023-02-11T19:11:50.493Z,61145.50
2023-02-11T19:14:23.693Z,61144.41
2023-02-11T19:16:54.602Z,61146.13
2023-02-11T19:19:25.412Z,61146.56
2023-02-11T19:21:53.881Z,61149.22
2023-02-11T19:24:23.341Z,61143.88
2023-02-11T19:26:54.872Z,61138.22
2023-02-11T19:29:24.827Z,61138.66
2023-02-11T19:31:53.657Z,61149.09
2023-02-11T19:34:22.709Z,61141.19
2023-02-11T19:36:51.814Z,61145.50
2023-02-11T19:39:20.324Z,61141.44
2023-02-11T19:41:48.691Z,61141.19
2023-02-11T19:44:17.346Z,61137.16
2023-02-11T19:46:48.426Z,61144.41
2023-02-11T19:49:23.029Z,61141.84
2023-02-11T19:51:52.151Z,61144.00
2023-02-11T19:54:21.651Z,61148.03
2023-02-11T19:56:50.794Z,61144.00
2023-02-11T19:59:20.089Z,61144.25
2023-02-11T20:01:50.114Z,61154.88
2023-02-11T20:04:19.809Z,61149.34
2023-02-11T20:06:49.535Z,61146.78
2023-02-11T20:09:18.038Z,61147.84
2023-02-11T20:11:46.440Z,61150.41
2023-02-11T20:14:15.799Z,61150.28
2023-02-11T20:16:49.282Z,61152.56
2023-02-11T20:19:22.167Z,61150.41
2023-02-11T20:21:53.468Z,61150.00
2023-02-11T20:24:22.649Z,61157.25
2023-02-11T20:26:55.520Z,61158.31
2023-02-11T20:29:25.839Z,61160.59
2023-02-11T20:31:55.237Z,61158.97
2023-02-11T20:34:25.396Z,61157.91
2023-02-11T20:36:54.932Z,61160.47
2023-02-11T20:39:25.100Z,61162.59
2023-02-11T20:41:54.643Z,61159.91
2023-02-11T20:44:23.881Z,61156.94
2023-02-11T20:46:54.346Z,61161.53
2023-02-11T20:49:26.972Z,61153.63
2023-02-11T20:51:56.853Z,61154.59
2023-02-11T20:54:26.567Z,61157.13
2023-02-11T20:56:56.880Z,61149.34
2023-02-11T20:59:26.437Z,61149.34
2023-02-11T21:01:57.396Z,61146.03
2023-02-11T21:04:30.568Z,61144.84
2023-02-11T21:07:02.267Z,61138.66
2023-02-11T21:09:34.350Z,61141.19
2023-02-11T21:12:03.498Z,61143.88
2023-02-11T21:14:32.354Z,61144.41
2023-02-11T21:17:00.821Z,61148.69
2023-02-11T21:19:30.651Z,61141.84
2023-02-11T21:22:00.725Z,61143.88
2023-02-11T21:24:30.924Z,61143.34
2023-02-11T21:26:59.678Z,61141.84
2023-02-11T21:29:28.131Z,61141.84
2023-02-11T21:31:56.809Z,61140.25
2023-02-11T21:34:25.950Z,61138.88
2023-02-11T21:36:55.696Z,61146.13
2023-02-11T21:39:24.170Z,61147.63
2023-02-11T21:41:52.849Z,61150.81
2023-02-11T21:44:21.339Z,61149.75
2023-02-11T21:46:49.864Z,61148.25
2023-02-11T21:49:19.782Z,61151.25
2023-02-11T21:51:48.995Z,61136.63
2023-02-11T21:54:19.050Z,61124.97
2023-02-11T21:56:47.490Z,61120.06
2023-02-11T21:59:19.030Z,61126.22
2023-02-11T22:01:47.770Z,61119.94
2023-02-11T22:04:17.140Z,61120.34
2023-02-11T22:06:45.757Z,61123.00
2023-02-11T22:09:14.136Z,61130.50
2023-02-11T22:11:44.062Z,61123.66
2023-02-11T22:14:12.615Z,61125.56
2023-02-11T22:16:41.149Z,61124.19
2023-02-11T22:19:10.573Z,61124.63
2023-02-11T22:21:39.143Z,61138.28
2023-02-11T22:24:08.606Z,61135.97
2023-02-11T22:26:36.984Z,61135.84
2023-02-11T22:29:09.082Z,61134.91
2023-02-11T22:31:37.805Z,61138.13
2023-02-11T22:34:07.109Z,61145.38
2023-02-11T22:36:40.942Z,61140.38
2023-02-11T22:39:13.051Z,61142.94
2023-02-11T22:41:42.470Z,61148.69
2023-02-11T22:44:12.732Z,61147.22
2023-02-11T22:46:41.722Z,61148.03
2023-02-11T22:49:11.517Z,61142.94
2023-02-11T22:51:40.679Z,61140.78
2023-02-11T22:54:14.000Z,61134.78
2023-02-11T22:56:42.543Z,61142.28
2023-02-11T22:59:15.432Z,61138.75
2023-02-11T23:01:44.650Z,61142.28
2023-02-11T23:04:15.212Z,61140.66
2023-02-11T23:06:44.199Z,61144.94
2023-02-11T23:09:13.566Z,61144.84
2023-02-11T23:11:42.259Z,61131.16
2023-02-11T23:14:12.579Z,61134.38
2023-02-11T23:16:41.369Z,61128.38
2023-02-11T23:19:12.411Z,61128.38
2023-02-11T23:21:41.246Z,61120.72
2023-02-11T23:24:13.687Z,61130.50
2023-02-11T23:26:43.534Z,61136.94
2023-02-11T23:29:14.370Z,61134.25
2023-02-11T23:31:46.742Z,61128.38
2023-02-11T23:34:17.291Z,61129.44
2023-02-11T23:36:46.273Z,61125.69
2023-02-11T23:39:17.563Z,61123.00
2023-02-11T23:41:47.060Z,61126.22
2023-02-11T23:44:17.208Z,61120.22
2023-02-11T23:46:46.080Z,61123.66
2023-02-11T23:49:15.581Z,61122.06
2023-02-11T23:51:44.145Z,61122.47
2023-02-11T23:54:14.875Z,61124.63
2023-02-11T23:56:43.770Z,61123.13
2023-02-11T23:59:12.814Z,61123.66
